createdAt,value
2019-05-18T00:01:06.802Z,99557.27
2019-05-18T00:03:34.661Z,99556.93
2019-05-18T00:06:02.545Z,99558.34
2019-05-18T00:08:30.316Z,99561.88
2019-05-18T00:10:58.175Z,99567.13
2019-05-18T00:13:26.080Z,99559.77
2019-05-18T00:15:53.915Z,99561.13
2019-05-18T00:18:21.684Z,99560.67
2019-05-18T00:20:49.510Z,99556.21
2019-05-18T00:23:17.310Z,99555.87
2019-05-18T00:25:45.220Z,99551.30
2019-05-18T00:28:13.018Z,99558.70
2019-05-18T00:30:40.889Z,99557.02
2019-05-18T00:33:08.704Z,99557.80
2019-05-18T00:35:36.545Z,99560.91
2019-05-18T00:38:04.313Z,99555.77
2019-05-18T00:40:32.100Z,99556.39
2019-05-18T00:42:59.942Z,99553.55
2019-05-18T00:45:27.797Z,99559.36
2019-05-18T00:47:55.667Z,99558.94
2019-05-18T00:50:23.468Z,99557.97
2019-05-18T00:52:51.300Z,99553.78
2019-05-18T00:55:19.222Z,99560.80
2019-05-18T00:57:49.071Z,99554.55
2019-05-18T01:00:17.454Z,99547.56
2019-05-18T01:02:45.308Z,99550.89
2019-05-18T01:05:13.178Z,99551.64
2019-05-18T01:07:40.993Z,99546.81
2019-05-18T01:10:09.496Z,99543.77
2019-05-18T01:12:37.283Z,99545.70
2019-05-18T01:15:06.258Z,99543.80
2019-05-18T01:17:34.053Z,99543.80
2019-05-18T01:20:01.827Z,99537.78
2019-05-18T01:22:29.602Z,99541.55
2019-05-18T01:24:57.378Z,99535.81
2019-05-18T01:27:25.214Z,99529.31
2019-05-18T01:29:53.038Z,99524.20
2019-05-18T01:32:20.812Z,99522.23
2019-05-18T01:34:48.575Z,99528.52
2019-05-18T01:37:16.382Z,99523.93
2019-05-18T01:39:44.158Z,99523.62
2019-05-18T01:42:11.954Z,99520.69
2019-05-18T01:44:39.753Z,99518.12
2019-05-18T01:47:07.525Z,99524.12
2019-05-18T01:49:35.538Z,99517.31
2019-05-18T01:52:03.439Z,99525.59
2019-05-18T01:54:31.481Z,99523.23
2019-05-18T01:57:01.371Z,99524.92
2019-05-18T01:59:28.973Z,99532.20
2019-05-18T02:01:56.735Z,99527.63
2019-05-18T02:04:24.522Z,99528.61
2019-05-18T02:06:52.679Z,99530.33
2019-05-18T02:09:20.490Z,99526.69
2019-05-18T02:11:48.339Z,99516.38
2019-05-18T02:14:16.183Z,99520.37
2019-05-18T02:16:43.964Z,99517.45
2019-05-18T02:19:11.743Z,99516.14
2019-05-18T02:21:39.622Z,99518.44
2019-05-18T02:24:07.433Z,99520.07
2019-05-18T02:26:35.197Z,99516.97
2019-05-18T02:29:03.005Z,99512.17
2019-05-18T02:31:30.814Z,99514.59
2019-05-18T02:33:58.650Z,99519.31
2019-05-18T02:36:26.401Z,99515.52
2019-05-18T02:38:54.188Z,99516.93
2019-05-18T02:41:21.978Z,99517.57
2019-05-18T02:43:49.782Z,99518.96
2019-05-18T02:46:17.578Z,99515.91
2019-05-18T02:48:50.158Z,99507.84
2019-05-18T02:51:15.020Z,99506.45
2019-05-18T02:53:42.825Z,99510.48
2019-05-18T02:56:10.606Z,99508.39
2019-05-18T02:58:38.418Z,99509.14
2019-05-18T03:01:06.333Z,99508.39
2019-05-18T03:03:34.171Z,99513.53
2019-05-18T03:06:02.125Z,99508.67
2019-05-18T03:08:29.940Z,99508.72
2019-05-18T03:10:57.683Z,99512.00
2019-05-18T03:13:25.596Z,99504.32
2019-05-18T03:15:53.387Z,99501.34
2019-05-18T03:18:21.139Z,99503.69
2019-05-18T03:20:48.972Z,99499.05
2019-05-18T03:23:16.763Z,99500.32
2019-05-18T03:25:44.610Z,99501.82
2019-05-18T03:28:12.394Z,99506.49
2019-05-18T03:30:40.178Z,99506.85
2019-05-18T03:33:07.957Z,99502.86
2019-05-18T03:35:35.835Z,99507.05
2019-05-18T03:38:03.604Z,99499.13
2019-05-18T03:40:31.711Z,99507.61
2019-05-18T03:42:59.571Z,99509.58
2019-05-18T03:45:27.606Z,99508.79
2019-05-18T03:47:55.394Z,99509.54
2019-05-18T03:50:23.190Z,99512.07
2019-05-18T03:52:51.015Z,99507.56
2019-05-18T03:55:18.801Z,99510.73
2019-05-18T03:57:46.613Z,99514.00
2019-05-18T04:00:14.795Z,99517.09
2019-05-18T04:02:42.545Z,99516.84
2019-05-18T04:05:10.575Z,99523.42
2019-05-18T04:07:38.385Z,99522.31
2019-05-18T04:10:06.642Z,99520.30
2019-05-18T04:12:34.477Z,99518.44
2019-05-18T04:15:02.396Z,99515.92
2019-05-18T04:17:30.319Z,99508.09
2019-05-18T04:19:58.105Z,99515.38
2019-05-18T04:22:25.895Z,99510.09
2019-05-18T04:24:53.712Z,99512.27
2019-05-18T04:27:21.529Z,99512.63
2019-05-18T04:29:49.334Z,99514.42
2019-05-18T04:32:17.143Z,99520.88
2019-05-18T04:34:44.949Z,99516.02
2019-05-18T04:37:12.788Z,99524.81
2019-05-18T04:39:40.562Z,99520.24
2019-05-18T04:42:08.353Z,99522.30
2019-05-18T04:44:36.154Z,99521.41
2019-05-18T04:47:03.914Z,99521.30
2019-05-18T04:49:31.720Z,99523.93
2019-05-18T04:51:59.496Z,99518.99
2019-05-18T04:54:27.257Z,99512.64
2019-05-18T04:56:55.093Z,99511.60
2019-05-18T04:59:22.920Z,99524.25
2019-05-18T05:01:50.992Z,99505.98
2019-05-18T05:04:18.866Z,99521.64
2019-05-18T05:06:46.661Z,99509.88
2019-05-18T05:09:14.447Z,99512.53
2019-05-18T05:11:42.287Z,99510.94
2019-05-18T05:14:10.072Z,99503.48
2019-05-18T05:16:37.922Z,99514.84
2019-05-18T05:19:08.656Z,99511.02
2019-05-18T05:21:35.496Z,99511.66
2019-05-18T05:24:03.267Z,99500.26
2019-05-18T05:26:31.097Z,99500.97
2019-05-18T05:28:59.676Z,99503.98
2019-05-18T05:31:27.498Z,99497.56
2019-05-18T05:33:55.289Z,99500.67
2019-05-18T05:36:23.099Z,99492.16
2019-05-18T05:38:50.883Z,99495.70
2019-05-18T05:41:18.732Z,99488.23
2019-05-18T05:43:46.537Z,99491.34
2019-05-18T05:46:14.315Z,99488.12
2019-05-18T05:48:42.114Z,99494.36
2019-05-18T05:51:10.131Z,99479.94
2019-05-18T05:53:37.957Z,99482.37
2019-05-18T05:56:05.757Z,99482.05
2019-05-18T05:58:33.557Z,99482.05
2019-05-18T06:01:01.320Z,99484.52
2019-05-18T06:03:29.143Z,99474.95
2019-05-18T06:05:56.951Z,99477.14
2019-05-18T06:08:24.862Z,99476.11
2019-05-18T06:10:52.667Z,99477.73
2019-05-18T06:13:20.483Z,99481.02
2019-05-18T06:15:48.282Z,99479.88
2019-05-18T06:18:16.125Z,99478.14
2019-05-18T06:20:51.658Z,99475.20
2019-05-18T06:23:13.735Z,99478.61
2019-05-18T06:25:41.608Z,99474.87
2019-05-18T06:28:09.462Z,99477.20
2019-05-18T06:30:37.331Z,99471.64
2019-05-18T06:33:05.171Z,99472.23
2019-05-18T06:35:33.001Z,99471.11
2019-05-18T06:38:00.813Z,99469.96
2019-05-18T06:40:28.607Z,99470.84
2019-05-18T06:42:56.495Z,99476.55
2019-05-18T06:45:24.332Z,99475.96
2019-05-18T06:47:52.181Z,99468.83
2019-05-18T06:50:28.494Z,99469.97
2019-05-18T06:52:56.509Z,99469.52
2019-05-18T06:55:25.407Z,99470.09
2019-05-18T06:57:59.000Z,99471.53
2019-05-18T07:00:26.873Z,99480.89
2019-05-18T07:02:54.807Z,99479.97
2019-05-18T07:05:22.777Z,99483.59
2019-05-18T07:07:50.591Z,99481.31
2019-05-18T07:10:18.535Z,99485.28
2019-05-18T07:12:46.488Z,99481.04
2019-05-18T07:15:15.670Z,99481.74
2019-05-18T07:17:43.677Z,99482.03
2019-05-18T07:20:11.901Z,99487.81
2019-05-18T07:22:39.717Z,99484.76
2019-05-18T07:25:08.313Z,99479.10
2019-05-18T07:27:36.134Z,99479.66
2019-05-18T07:30:04.552Z,99481.25
2019-05-18T07:32:32.346Z,99481.19
2019-05-18T07:35:00.290Z,99475.23
2019-05-18T07:37:28.087Z,99478.58
2019-05-18T07:39:56.025Z,99477.31
2019-05-18T07:42:23.832Z,99482.02
2019-05-18T07:44:51.655Z,99475.02
2019-05-18T07:47:19.445Z,99469.22
2019-05-18T07:49:47.412Z,99473.43
2019-05-18T07:52:17.278Z,99479.81
2019-05-18T07:54:45.007Z,99473.59
2019-05-18T07:57:12.862Z,99476.53
2019-05-18T07:59:40.719Z,99475.09
2019-05-18T08:02:08.526Z,99478.55
2019-05-18T08:04:39.708Z,99476.08
2019-05-18T08:07:06.247Z,99472.34
2019-05-18T08:09:34.017Z,99473.98
2019-05-18T08:12:01.822Z,99475.83
2019-05-18T08:14:29.807Z,99476.28
2019-05-18T08:16:57.605Z,99469.27
2019-05-18T08:19:25.416Z,99469.53
2019-05-18T08:21:53.857Z,99473.30
2019-05-18T08:24:21.723Z,99475.81
2019-05-18T08:26:49.679Z,99473.20
2019-05-18T08:29:17.629Z,99480.64
2019-05-18T08:31:45.459Z,99479.14
2019-05-18T08:34:13.492Z,99477.11
2019-05-18T08:36:41.535Z,99472.14
2019-05-18T08:39:09.363Z,99470.25
2019-05-18T08:41:38.018Z,99459.00
2019-05-18T08:44:05.790Z,99463.87
2019-05-18T08:46:33.794Z,99460.83
2019-05-18T08:49:01.845Z,99465.66
2019-05-18T08:51:29.714Z,99464.79
2019-05-18T08:53:57.517Z,99463.81
2019-05-18T08:56:25.321Z,99473.88
2019-05-18T08:58:53.098Z,99460.47
2019-05-18T09:01:20.927Z,99462.84
2019-05-18T09:03:48.726Z,99457.66
2019-05-18T09:06:16.586Z,99459.51
2019-05-18T09:08:44.384Z,99463.48
2019-05-18T09:11:12.352Z,99457.67
2019-05-18T09:13:40.131Z,99456.78
2019-05-18T09:16:08.132Z,99465.05
2019-05-18T09:18:35.945Z,99457.91
2019-05-18T09:21:03.755Z,99450.11
2019-05-18T09:23:31.530Z,99458.77
2019-05-18T09:25:59.618Z,99460.42
2019-05-18T09:28:27.504Z,99460.64
2019-05-18T09:30:55.510Z,99455.28
2019-05-18T09:33:23.303Z,99456.08
2019-05-18T09:35:51.312Z,99450.86
2019-05-18T09:38:19.083Z,99448.27
2019-05-18T09:40:46.957Z,99450.25
2019-05-18T09:43:14.846Z,99453.77
2019-05-18T09:45:42.810Z,99456.33
2019-05-18T09:48:10.621Z,99452.87
2019-05-18T09:50:38.634Z,99454.45
2019-05-18T09:53:06.474Z,99449.91
2019-05-18T09:55:34.512Z,99452.14
2019-05-18T09:58:02.459Z,99446.98
2019-05-18T10:00:37.794Z,99445.79
2019-05-18T10:03:00.416Z,99458.75
2019-05-18T10:05:28.366Z,99456.06
2019-05-18T10:07:56.539Z,99462.00
2019-05-18T10:10:24.343Z,99458.06
2019-05-18T10:12:52.299Z,99464.05
2019-05-18T10:15:20.452Z,99455.36
2019-05-18T10:17:48.459Z,99447.47
2019-05-18T10:20:16.656Z,99441.84
2019-05-18T10:22:55.435Z,99446.35
2019-05-18T10:25:14.620Z,99451.48
2019-05-18T10:27:42.480Z,99454.57
2019-05-18T10:30:12.006Z,99443.89
2019-05-18T10:32:39.801Z,99435.23
2019-05-18T10:35:08.125Z,99439.94
2019-05-18T10:37:35.943Z,99443.45
2019-05-18T10:40:04.433Z,99438.17
2019-05-18T10:42:32.405Z,99440.55
2019-05-18T10:45:00.200Z,99430.78
2019-05-18T10:47:28.256Z,99420.23
2019-05-18T10:49:56.074Z,99419.34
2019-05-18T10:52:24.065Z,99420.02
2019-05-18T10:54:51.855Z,99423.86
2019-05-18T10:57:19.672Z,99423.80
2019-05-18T10:59:47.485Z,99413.91
2019-05-18T11:02:15.259Z,99403.22
2019-05-18T11:04:43.088Z,99390.11
2019-05-18T11:07:11.075Z,99400.23
2019-05-18T11:09:38.867Z,99395.95
2019-05-18T11:12:06.942Z,99394.44
2019-05-18T11:14:34.819Z,99393.58
2019-05-18T11:17:02.895Z,99391.80
2019-05-18T11:19:30.686Z,99392.52
2019-05-18T11:21:58.504Z,99391.09
2019-05-18T11:24:26.343Z,99395.14
2019-05-18T11:26:54.366Z,99389.67
2019-05-18T11:29:23.820Z,99394.16
2019-05-18T11:31:51.941Z,99388.84
2019-05-18T11:34:19.758Z,99380.70
2019-05-18T11:36:47.741Z,99380.23
2019-05-18T11:39:15.625Z,99383.19
2019-05-18T11:41:43.412Z,99376.45
2019-05-18T11:44:11.364Z,99373.08
2019-05-18T11:46:39.412Z,99373.59
2019-05-18T11:49:07.246Z,99372.34
2019-05-18T11:51:35.039Z,99373.25
2019-05-18T11:54:02.920Z,99366.01
2019-05-18T11:56:30.794Z,99360.43
2019-05-18T11:58:58.839Z,99364.34
2019-05-18T12:01:26.665Z,99355.70
2019-05-18T12:03:54.601Z,99352.80
2019-05-18T12:06:22.431Z,99354.59
2019-05-18T12:08:50.235Z,99357.78
2019-05-18T12:11:18.022Z,99347.86
2019-05-18T12:13:45.980Z,99347.31
2019-05-18T12:16:17.185Z,99347.13
2019-05-18T12:18:43.480Z,99353.07
2019-05-18T12:21:11.302Z,99354.57
2019-05-18T12:23:39.073Z,99353.28
2019-05-18T12:26:06.907Z,99349.70
2019-05-18T12:28:34.723Z,99345.34
2019-05-18T12:31:02.518Z,99341.08
2019-05-18T12:33:30.339Z,99341.69
2019-05-18T12:35:58.137Z,99340.59
2019-05-18T12:38:25.963Z,99338.25
2019-05-18T12:40:54.098Z,99338.55
2019-05-18T12:43:22.012Z,99329.58
2019-05-18T12:45:49.822Z,99332.50
2019-05-18T12:48:17.775Z,99337.83
2019-05-18T12:50:45.776Z,99335.09
2019-05-18T12:53:13.592Z,99341.58
2019-05-18T12:55:41.648Z,99336.19
2019-05-18T12:58:09.462Z,99332.86
2019-05-18T13:00:37.423Z,99321.77
2019-05-18T13:03:05.382Z,99319.31
2019-05-18T13:05:33.370Z,99318.87
2019-05-18T13:08:01.313Z,99316.19
2019-05-18T13:10:29.157Z,99323.95
2019-05-18T13:12:57.155Z,99313.23
2019-05-18T13:15:25.336Z,99317.79
2019-05-18T13:17:53.146Z,99323.34
2019-05-18T13:20:21.293Z,99328.22
2019-05-18T13:22:49.117Z,99319.97
2019-05-18T13:25:17.619Z,99322.06
2019-05-18T13:27:45.550Z,99321.50
2019-05-18T13:30:19.394Z,99316.62
2019-05-18T13:32:45.157Z,99309.73
2019-05-18T13:35:16.560Z,99302.91
2019-05-18T13:37:44.393Z,99293.39
2019-05-18T13:40:12.908Z,99294.26
2019-05-18T13:42:40.728Z,99286.21
2019-05-18T13:45:09.967Z,99291.57
2019-05-18T13:47:37.808Z,99281.21
2019-05-18T13:50:07.235Z,99288.58
2019-05-18T13:52:35.213Z,99285.41
2019-05-18T13:55:04.995Z,99288.81
2019-05-18T13:57:33.099Z,99288.53
2019-05-18T14:00:01.045Z,99301.34
2019-05-18T14:02:28.818Z,99291.41
2019-05-18T14:04:56.761Z,99287.34
2019-05-18T14:07:24.572Z,99292.66
2019-05-18T14:09:52.367Z,99294.63
2019-05-18T14:12:20.156Z,99294.03
2019-05-18T14:14:47.907Z,99296.23
2019-05-18T14:17:15.839Z,99292.98
2019-05-18T14:19:44.168Z,99300.16
2019-05-18T14:22:11.991Z,99291.86
2019-05-18T14:24:39.806Z,99298.80
2019-05-18T14:27:07.771Z,99297.85
2019-05-18T14:29:35.744Z,99297.38
2019-05-18T14:32:03.731Z,99295.53
2019-05-18T14:34:31.540Z,99284.95
2019-05-18T14:36:59.579Z,99291.63
2019-05-18T14:39:27.440Z,99286.23
2019-05-18T14:41:55.244Z,99288.09
2019-05-18T14:44:23.289Z,99287.27
2019-05-18T14:46:51.066Z,99291.84
2019-05-18T14:49:19.054Z,99293.47
2019-05-18T14:51:46.857Z,99293.84
2019-05-18T14:54:14.700Z,99289.23
2019-05-18T14:56:42.680Z,99295.73
2019-05-18T14:59:10.547Z,99294.21
2019-05-18T15:01:38.497Z,99290.58
2019-05-18T15:04:06.340Z,99292.30
2019-05-18T15:06:35.584Z,99293.77
2019-05-18T15:09:05.229Z,99288.04
2019-05-18T15:11:33.186Z,99280.90
2019-05-18T15:14:01.043Z,99283.97
2019-05-18T15:16:29.025Z,99288.00
2019-05-18T15:18:56.816Z,99281.60
2019-05-18T15:21:24.755Z,99281.02
2019-05-18T15:23:52.558Z,99279.73
2019-05-18T15:26:20.465Z,99283.66
2019-05-18T15:28:48.269Z,99288.88
2019-05-18T15:31:16.460Z,99286.86
2019-05-18T15:33:44.277Z,99278.05
2019-05-18T15:36:12.062Z,99292.46
2019-05-18T15:38:39.865Z,99286.59
2019-05-18T15:41:07.685Z,99288.53
2019-05-18T15:43:35.546Z,99291.34
2019-05-18T15:46:03.516Z,99284.70
2019-05-18T15:48:31.359Z,99289.17
2019-05-18T15:50:59.446Z,99292.01
2019-05-18T15:53:27.364Z,99291.20
2019-05-18T15:56:05.424Z,99289.69
2019-05-18T15:58:25.205Z,99297.98
2019-05-18T16:00:53.085Z,99294.48
2019-05-18T16:03:21.229Z,99294.73
2019-05-18T16:05:49.487Z,99301.35
2019-05-18T16:08:17.431Z,99297.81
2019-05-18T16:10:45.457Z,99295.49
2019-05-18T16:13:13.542Z,99293.60
2019-05-18T16:15:41.551Z,99290.52
2019-05-18T16:18:09.329Z,99292.13
2019-05-18T16:20:37.308Z,99290.45
2019-05-18T16:23:05.261Z,99295.03
2019-05-18T16:25:33.117Z,99288.97
2019-05-18T16:28:01.111Z,99291.86
2019-05-18T16:30:29.023Z,99293.62
2019-05-18T16:32:57.056Z,99294.58
2019-05-18T16:35:26.252Z,99290.45
2019-05-18T16:37:56.913Z,99295.71
2019-05-18T16:40:24.709Z,99299.83
2019-05-18T16:42:52.531Z,99298.06
2019-05-18T16:45:20.514Z,99293.60
2019-05-18T16:47:51.077Z,99296.36
2019-05-18T16:50:19.097Z,99302.42
2019-05-18T16:52:46.906Z,99299.30
2019-05-18T16:55:16.244Z,99291.38
2019-05-18T16:57:44.036Z,99291.28
2019-05-18T17:00:16.030Z,99288.25
2019-05-18T17:02:42.493Z,99285.13
2019-05-18T17:05:10.637Z,99290.47
2019-05-18T17:07:38.446Z,99290.36
2019-05-18T17:10:07.063Z,99293.44
2019-05-18T17:12:34.871Z,99293.86
2019-05-18T17:15:02.893Z,99291.45
2019-05-18T17:17:30.672Z,99296.48
2019-05-18T17:19:58.631Z,99294.19
2019-05-18T17:22:26.407Z,99286.70
2019-05-18T17:24:54.226Z,99282.78
2019-05-18T17:27:22.056Z,99283.27
2019-05-18T17:29:50.025Z,99280.62
2019-05-18T17:32:17.878Z,99284.56
2019-05-18T17:34:45.780Z,99281.72
2019-05-18T17:37:13.566Z,99287.35
2019-05-18T17:39:41.439Z,99284.28
2019-05-18T17:42:09.358Z,99284.01
2019-05-18T17:44:37.130Z,99281.16
2019-05-18T17:47:06.478Z,99283.70
2019-05-18T17:49:34.273Z,99280.31
2019-05-18T17:52:02.093Z,99284.02
2019-05-18T17:54:30.983Z,99277.13
2019-05-18T17:57:08.166Z,99283.45
2019-05-18T17:59:28.497Z,99279.80
2019-05-18T18:01:56.303Z,99279.44
2019-05-18T18:04:24.138Z,99282.20
2019-05-18T18:06:54.459Z,99284.56
2019-05-18T18:09:24.206Z,99279.59
2019-05-18T18:11:52.128Z,99289.34
2019-05-18T18:14:19.982Z,99290.48
2019-05-18T18:16:47.852Z,99283.86
2019-05-18T18:19:15.691Z,99295.13
2019-05-18T18:21:43.706Z,99293.72
2019-05-18T18:24:12.877Z,99300.39
2019-05-18T18:26:40.775Z,99295.74
2019-05-18T18:29:08.713Z,99297.86
2019-05-18T18:31:36.551Z,99294.13
2019-05-18T18:34:04.505Z,99291.36
2019-05-18T18:36:32.405Z,99290.27
2019-05-18T18:39:00.188Z,99293.55
2019-05-18T18:41:28.143Z,99294.36
2019-05-18T18:43:56.091Z,99296.77
2019-05-18T18:46:24.028Z,99294.84
2019-05-18T18:48:53.089Z,99293.89
2019-05-18T18:51:20.960Z,99294.69
2019-05-18T18:53:48.892Z,99299.47
2019-05-18T18:56:16.757Z,99310.42
2019-05-18T18:58:44.656Z,99303.57
2019-05-18T19:01:12.618Z,99307.16
2019-05-18T19:03:40.560Z,99319.14
2019-05-18T19:06:08.476Z,99314.53
2019-05-18T19:08:36.431Z,99314.05
2019-05-18T19:11:04.278Z,99315.50
2019-05-18T19:13:32.079Z,99325.46
2019-05-18T19:16:02.392Z,99322.36
2019-05-18T19:18:30.219Z,99328.97
2019-05-18T19:20:58.029Z,99326.70
2019-05-18T19:23:25.869Z,99331.16
2019-05-18T19:25:53.704Z,99334.84
2019-05-18T19:28:21.562Z,99343.09
2019-05-18T19:30:49.419Z,99341.27
2019-05-18T19:33:17.209Z,99340.05
2019-05-18T19:35:45.142Z,99343.35
2019-05-18T19:38:13.042Z,99339.06
2019-05-18T19:40:40.837Z,99344.98
2019-05-18T19:43:08.742Z,99347.23
2019-05-18T19:45:36.547Z,99354.98
2019-05-18T19:48:04.397Z,99351.44
2019-05-18T19:50:32.336Z,99355.87
2019-05-18T19:53:01.608Z,99349.36
2019-05-18T19:55:29.421Z,99362.00
2019-05-18T19:58:08.187Z,99365.91
2019-05-18T20:00:27.083Z,99359.98
2019-05-18T20:02:54.915Z,99365.22
2019-05-18T20:05:22.747Z,99374.78
2019-05-18T20:07:50.573Z,99367.78
2019-05-18T20:10:18.542Z,99362.67
2019-05-18T20:12:46.348Z,99370.47
2019-05-18T20:15:14.551Z,99363.72
2019-05-18T20:17:42.398Z,99374.86
2019-05-18T20:20:10.741Z,99367.27
2019-05-18T20:22:38.567Z,99371.41
2019-05-18T20:25:07.209Z,99372.36
2019-05-18T20:27:35.155Z,99366.70
2019-05-18T20:30:03.526Z,99372.24
2019-05-18T20:32:31.415Z,99370.84
2019-05-18T20:34:59.339Z,99367.87
2019-05-18T20:37:27.175Z,99375.05
2019-05-18T20:39:55.048Z,99377.48
2019-05-18T20:42:22.818Z,99370.17
2019-05-18T20:44:50.656Z,99373.73
2019-05-18T20:47:18.499Z,99369.97
2019-05-18T20:49:46.369Z,99378.17
2019-05-18T20:52:14.260Z,99378.48
2019-05-18T20:54:42.075Z,99376.33
2019-05-18T20:57:09.877Z,99375.25
2019-05-18T20:59:38.520Z,99379.94
2019-05-18T21:02:06.455Z,99377.72
2019-05-18T21:04:34.254Z,99367.69
2019-05-18T21:07:02.076Z,99370.95
2019-05-18T21:09:29.945Z,99370.44
2019-05-18T21:11:57.811Z,99376.42
2019-05-18T21:14:25.625Z,99375.66
2019-05-18T21:16:53.429Z,99383.30
2019-05-18T21:19:21.248Z,99387.35
2019-05-18T21:21:49.046Z,99376.80
2019-05-18T21:24:16.842Z,99375.46
2019-05-18T21:26:44.649Z,99385.02
2019-05-18T21:29:12.440Z,99383.39
2019-05-18T21:31:40.285Z,99377.97
2019-05-18T21:34:08.120Z,99374.70
2019-05-18T21:36:35.924Z,99376.36
2019-05-18T21:39:05.117Z,99368.20
2019-05-18T21:41:33.010Z,99376.90
2019-05-18T21:44:00.936Z,99376.09
2019-05-18T21:46:28.809Z,99371.73
2019-05-18T21:48:56.624Z,99372.83
2019-05-18T21:51:24.406Z,99369.02
2019-05-18T21:53:52.192Z,99380.72
2019-05-18T21:56:19.976Z,99381.02
2019-05-18T21:58:47.755Z,99369.05
2019-05-18T22:01:15.803Z,99372.86
2019-05-18T22:03:47.868Z,99374.52
2019-05-18T22:06:13.353Z,99365.82
2019-05-18T22:08:41.212Z,99363.11
2019-05-18T22:11:09.040Z,99362.03
2019-05-18T22:13:36.840Z,99363.95
2019-05-18T22:16:04.692Z,99358.25
2019-05-18T22:18:32.538Z,99358.80
2019-05-18T22:21:00.370Z,99356.62
2019-05-18T22:23:28.150Z,99362.88
2019-05-18T22:25:57.134Z,99355.27
2019-05-18T22:28:25.134Z,99352.56
2019-05-18T22:30:52.967Z,99351.47
2019-05-18T22:33:20.782Z,99353.10
2019-05-18T22:35:48.600Z,99352.55
2019-05-18T22:38:16.409Z,99341.41
2019-05-18T22:40:44.200Z,99351.48
2019-05-18T22:43:12.008Z,99344.67
2019-05-18T22:45:39.790Z,99349.32
2019-05-18T22:48:07.703Z,99347.13
2019-05-18T22:50:35.460Z,99352.28
2019-05-18T22:53:03.307Z,99349.31
2019-05-18T22:55:31.064Z,99349.30
2019-05-18T22:57:59.026Z,99344.96
2019-05-18T23:00:26.826Z,99340.07
2019-05-18T23:02:54.664Z,99337.91
2019-05-18T23:05:22.459Z,99337.92
2019-05-18T23:07:50.293Z,99336.27
2019-05-18T23:10:18.112Z,99338.98
2019-05-18T23:12:45.953Z,99340.86
2019-05-18T23:15:14.058Z,99347.63
2019-05-18T23:17:45.054Z,99350.36
2019-05-18T23:20:13.117Z,99337.32
2019-05-18T23:22:40.918Z,99344.38
2019-05-18T23:25:09.029Z,99341.94
2019-05-18T23:27:36.839Z,99334.88
2019-05-18T23:30:04.997Z,99332.16
2019-05-18T23:32:32.824Z,99340.05
2019-05-18T23:35:00.723Z,99337.61
2019-05-18T23:37:28.567Z,99337.05
2019-05-18T23:40:00.685Z,99333.52
2019-05-18T23:42:28.525Z,99337.31
2019-05-18T23:44:56.332Z,99333.80
2019-05-18T23:47:24.135Z,99333.53
2019-05-18T23:49:52.006Z,99327.28
2019-05-18T23:52:19.871Z,99323.46
2019-05-18T23:54:47.673Z,99322.67
2019-05-18T23:57:15.475Z,99311.82
2019-05-18T23:59:43.317Z,99318.05
